createdAt,value
2022-10-13T00:02:29.769Z,96.95
2022-10-13T00:06:32.119Z,96.54
2022-10-13T00:10:35.981Z,96.28
2022-10-13T00:14:37.302Z,96.33
2022-10-13T00:18:38.570Z,96.11
2022-10-13T00:22:59.573Z,95.81
2022-10-13T00:27:00.808Z,95.64
2022-10-13T00:31:02.099Z,96.32
2022-10-13T00:35:03.471Z,95.63
2022-10-13T00:39:05.331Z,95.41
2022-10-13T00:43:14.328Z,95.18
2022-10-13T00:47:15.660Z,95.13
2022-10-13T00:51:19.088Z,94.85
2022-10-13T00:55:22.298Z,94.56
2022-10-13T00:59:27.252Z,94.89
2022-10-13T01:03:28.596Z,94.71
2022-10-13T01:07:30.500Z,94.60
2022-10-13T01:11:51.171Z,95.00
2022-10-13T01:15:57.493Z,95.33
2022-10-13T01:20:10.978Z,95.38
2022-10-13T01:24:24.425Z,95.48
2022-10-13T01:28:34.976Z,95.09
2022-10-13T01:32:55.113Z,95.87
2022-10-13T01:37:00.412Z,96.03
2022-10-13T01:41:12.957Z,96.46
2022-10-13T01:45:16.407Z,96.66
2022-10-13T01:49:19.225Z,96.78
2022-10-13T01:53:21.747Z,96.85
2022-10-13T01:57:35.188Z,96.61
2022-10-13T02:01:59.864Z,96.74
2022-10-13T02:06:16.036Z,96.31
2022-10-13T02:10:28.341Z,96.48
2022-10-13T02:14:30.840Z,96.46
2022-10-13T02:18:34.244Z,96.31
2022-10-13T02:22:38.315Z,96.01
2022-10-13T02:26:40.888Z,95.66
2022-10-13T02:30:42.657Z,95.54
2022-10-13T02:34:44.182Z,95.34
2022-10-13T02:38:45.472Z,95.19
2022-10-13T02:42:47.226Z,95.22
2022-10-13T02:46:48.561Z,95.24
2022-10-13T02:50:49.892Z,94.87
2022-10-13T02:54:51.683Z,95.31
2022-10-13T02:58:53.002Z,95.46
2022-10-13T03:02:54.257Z,95.53
2022-10-13T03:06:55.536Z,95.49
2022-10-13T03:10:57.401Z,95.70
2022-10-13T03:14:58.952Z,95.94
2022-10-13T03:19:00.204Z,95.86
2022-10-13T03:23:01.500Z,95.55
2022-10-13T03:27:02.840Z,95.92
2022-10-13T03:31:05.270Z,96.00
2022-10-13T03:35:06.949Z,95.86
2022-10-13T03:39:08.207Z,96.02
2022-10-13T03:43:09.480Z,96.09
2022-10-13T03:47:11.128Z,96.20
2022-10-13T03:51:14.903Z,96.19
2022-10-13T03:55:16.244Z,96.37
2022-10-13T03:59:18.489Z,96.66
2022-10-13T04:03:20.054Z,96.62
2022-10-13T04:07:21.359Z,96.65
2022-10-13T04:11:23.045Z,96.64
2022-10-13T04:15:24.424Z,96.88
2022-10-13T04:19:26.774Z,96.75
2022-10-13T04:23:28.011Z,96.98
2022-10-13T04:27:30.476Z,96.66
2022-10-13T04:31:32.081Z,96.78
2022-10-13T04:35:33.778Z,97.01
2022-10-13T04:39:35.122Z,96.98
2022-10-13T04:43:36.541Z,97.37
2022-10-13T04:47:39.519Z,97.42
2022-10-13T04:51:40.785Z,97.48
2022-10-13T04:55:42.032Z,97.62
2022-10-13T04:59:43.292Z,97.81
2022-10-13T05:03:44.896Z,97.54
2022-10-13T05:07:46.196Z,97.04
2022-10-13T05:11:47.556Z,97.48
2022-10-13T05:15:49.014Z,97.53
2022-10-13T05:19:50.264Z,97.45
2022-10-13T05:23:56.516Z,97.27
2022-10-13T05:27:57.849Z,97.17
2022-10-13T05:31:59.178Z,97.13
2022-10-13T05:36:19.417Z,96.48
2022-10-13T05:40:21.356Z,96.74
2022-10-13T05:44:22.697Z,97.14
2022-10-13T05:48:23.972Z,96.97
2022-10-13T05:52:25.840Z,97.26
2022-10-13T05:56:30.269Z,97.00
2022-10-13T06:00:31.561Z,96.72
2022-10-13T06:04:39.668Z,96.91
2022-10-13T06:08:42.598Z,97.35
2022-10-13T06:12:44.104Z,97.30
2022-10-13T06:16:45.347Z,97.48
2022-10-13T06:20:47.063Z,97.45
2022-10-13T06:24:48.290Z,97.48
2022-10-13T06:28:51.732Z,97.74
2022-10-13T06:32:57.588Z,97.88
2022-10-13T06:36:59.488Z,97.95
2022-10-13T06:41:01.921Z,98.04
2022-10-13T06:45:03.309Z,97.32
2022-10-13T06:49:04.594Z,97.64
2022-10-13T06:53:05.921Z,98.16
2022-10-13T06:57:07.189Z,97.85
2022-10-13T07:01:11.920Z,97.99
2022-10-13T07:05:13.204Z,97.55
2022-10-13T07:09:14.695Z,98.05
2022-10-13T07:13:16.053Z,97.87
2022-10-13T07:17:18.248Z,97.54
2022-10-13T07:21:19.890Z,97.53
2022-10-13T07:25:21.168Z,98.07
2022-10-13T07:29:22.432Z,98.12
2022-10-13T07:33:24.014Z,98.26
2022-10-13T07:37:26.147Z,97.77
2022-10-13T07:41:27.848Z,97.49
2022-10-13T07:45:29.188Z,97.00
2022-10-13T07:49:30.502Z,96.75
2022-10-13T07:53:31.869Z,96.19
2022-10-13T07:57:33.256Z,95.92
2022-10-13T08:01:34.591Z,95.41
2022-10-13T08:05:39.251Z,96.12
2022-10-13T08:09:40.548Z,96.35
2022-10-13T08:13:42.061Z,95.68
2022-10-13T08:17:43.337Z,95.61
2022-10-13T08:21:58.124Z,95.17
2022-10-13T08:25:59.812Z,93.96
2022-10-13T08:30:01.790Z,93.47
2022-10-13T08:34:03.124Z,93.33
2022-10-13T08:38:05.065Z,91.98
2022-10-13T08:42:20.122Z,91.96
2022-10-13T08:46:44.529Z,91.67
2022-10-13T08:50:47.558Z,90.74
2022-10-13T08:54:49.367Z,90.94
2022-10-13T08:58:51.497Z,91.17
2022-10-13T09:02:52.898Z,91.09
2022-10-13T09:06:56.184Z,91.54
2022-10-13T09:10:57.509Z,91.38
2022-10-13T09:15:01.802Z,90.91
2022-10-13T09:19:21.793Z,91.54
2022-10-13T09:23:23.087Z,90.69
2022-10-13T09:27:24.394Z,90.99
2022-10-13T09:31:27.319Z,90.99
2022-10-13T09:35:29.011Z,91.24
2022-10-13T09:39:31.388Z,90.99
2022-10-13T09:43:42.283Z,90.99
2022-10-13T09:47:51.951Z,89.89
2022-10-13T09:51:59.113Z,89.28
2022-10-13T09:56:19.171Z,88.97
2022-10-13T10:00:24.881Z,89.61
2022-10-13T10:04:29.954Z,89.20
2022-10-13T10:09:01.382Z,89.45
2022-10-13T10:13:03.007Z,89.06
2022-10-13T10:17:23.257Z,87.70
2022-10-13T10:21:30.849Z,87.69
2022-10-13T10:25:46.944Z,86.84
2022-10-13T10:30:01.987Z,86.82
2022-10-13T10:34:14.841Z,85.94
2022-10-13T10:38:35.528Z,85.85
2022-10-13T10:42:57.081Z,85.84
2022-10-13T10:47:04.437Z,85.40
2022-10-13T10:51:10.500Z,84.57
2022-10-13T10:55:18.092Z,84.38
2022-10-13T10:59:22.337Z,84.23
2022-10-13T11:03:47.882Z,84.28
2022-10-13T11:07:52.109Z,84.30
2022-10-13T11:11:53.382Z,83.88
2022-10-13T11:15:55.522Z,84.18
2022-10-13T11:19:57.862Z,84.50
2022-10-13T11:24:02.029Z,83.87
2022-10-13T11:28:27.298Z,83.56
2022-10-13T11:32:42.005Z,83.15
2022-10-13T11:36:48.344Z,83.41
2022-10-13T11:41:15.831Z,83.19
2022-10-13T11:45:29.310Z,83.12
2022-10-13T11:49:39.755Z,82.43
2022-10-13T11:53:50.188Z,81.85
2022-10-13T11:57:51.597Z,82.14
2022-10-13T12:02:11.218Z,82.35
2022-10-13T12:06:21.915Z,82.08
2022-10-13T12:10:33.748Z,81.54
2022-10-13T12:14:40.416Z,81.55
2022-10-13T12:18:41.764Z,81.52
2022-10-13T12:22:49.952Z,81.73
2022-10-13T12:26:51.835Z,80.79
2022-10-13T12:30:54.553Z,80.55
2022-10-13T12:34:56.382Z,80.08
2022-10-13T12:39:02.691Z,80.25
2022-10-13T12:43:05.246Z,79.98
2022-10-13T12:47:26.743Z,80.77
2022-10-13T12:51:28.094Z,80.39
2022-10-13T12:55:29.698Z,80.95
2022-10-13T12:59:31.619Z,81.45
2022-10-13T13:03:33.505Z,81.83
2022-10-13T13:07:37.089Z,82.85
2022-10-13T13:11:39.058Z,83.87
2022-10-13T13:15:41.629Z,84.22
2022-10-13T13:19:44.695Z,84.22
2022-10-13T13:23:51.217Z,85.76
2022-10-13T13:27:55.424Z,86.10
2022-10-13T13:31:56.772Z,86.39
2022-10-13T13:35:58.113Z,86.50
2022-10-13T13:39:59.442Z,86.93
2022-10-13T13:44:01.047Z,87.44
2022-10-13T13:48:02.353Z,87.21
2022-10-13T13:52:03.645Z,87.20
2022-10-13T13:56:05.123Z,87.06
2022-10-13T14:00:06.853Z,86.86
2022-10-13T14:04:08.110Z,86.49
2022-10-13T14:08:09.728Z,86.75
2022-10-13T14:12:11.415Z,86.28
2022-10-13T14:16:15.785Z,84.52
2022-10-13T14:20:17.401Z,84.60
2022-10-13T14:24:19.042Z,84.47
2022-10-13T14:28:20.390Z,84.62
2022-10-13T14:32:22.093Z,84.67
2022-10-13T14:36:23.839Z,85.43
2022-10-13T14:40:25.125Z,85.82
2022-10-13T14:44:26.476Z,86.71
2022-10-13T14:48:27.788Z,87.71
2022-10-13T14:52:29.098Z,88.08
2022-10-13T14:56:30.492Z,88.63
2022-10-13T15:00:31.754Z,89.21
2022-10-13T15:04:33.437Z,89.51
2022-10-13T15:08:34.773Z,89.85
2022-10-13T15:12:36.708Z,90.72
2022-10-13T15:16:38.346Z,91.22
2022-10-13T15:20:39.662Z,91.80
2022-10-13T15:24:40.957Z,92.42
2022-10-13T15:28:47.027Z,92.78
2022-10-13T15:32:48.724Z,93.33
2022-10-13T15:36:50.389Z,93.83
2022-10-13T15:40:51.697Z,94.24
2022-10-13T15:45:10.272Z,94.55
2022-10-13T15:49:12.231Z,94.83
2022-10-13T15:53:14.016Z,95.46
2022-10-13T15:57:15.331Z,95.50
2022-10-13T16:01:16.707Z,95.81
2022-10-13T16:05:18.356Z,95.88
2022-10-13T16:09:19.649Z,96.00
2022-10-13T16:13:20.888Z,96.30
2022-10-13T16:17:22.560Z,96.76
2022-10-13T16:21:25.775Z,96.92
2022-10-13T16:25:27.104Z,97.30
2022-10-13T16:29:28.373Z,97.85
2022-10-13T16:33:29.642Z,97.96
2022-10-13T16:37:31.045Z,98.49
2022-10-13T16:41:32.352Z,98.54
2022-10-13T16:45:55.004Z,98.74
2022-10-13T16:49:55.329Z,98.99
2022-10-13T16:54:02.976Z,99.24
2022-10-13T16:58:05.631Z,99.32
2022-10-13T17:02:06.915Z,99.35
2022-10-13T17:06:08.692Z,99.55
2022-10-13T17:10:10.053Z,100.00
2022-10-13T17:14:11.621Z,100.00
2022-10-13T17:18:12.850Z,100.00
2022-10-13T17:22:14.372Z,100.00
2022-10-13T17:26:16.864Z,100.00
2022-10-13T17:30:18.185Z,100.00
2022-10-13T17:34:19.542Z,100.00
2022-10-13T17:38:21.248Z,100.00
2022-10-13T17:42:22.497Z,100.00
2022-10-13T17:46:40.607Z,100.00
2022-10-13T17:50:41.929Z,100.00
2022-10-13T17:54:43.756Z,100.00
2022-10-13T17:58:45.383Z,100.00
2022-10-13T18:02:47.443Z,100.00
2022-10-13T18:06:48.829Z,100.00
2022-10-13T18:11:07.795Z,100.00
2022-10-13T18:15:09.845Z,100.00
2022-10-13T18:19:11.143Z,100.00
2022-10-13T18:23:12.393Z,100.00
2022-10-13T18:27:13.713Z,100.00
2022-10-13T18:31:18.100Z,100.00
2022-10-13T18:35:19.414Z,100.00
2022-10-13T18:39:22.665Z,100.00
2022-10-13T18:43:24.693Z,100.00
2022-10-13T18:47:25.924Z,100.00
2022-10-13T18:51:33.420Z,100.00
2022-10-13T18:55:37.204Z,100.00
2022-10-13T18:59:39.029Z,100.00
2022-10-13T19:03:40.843Z,100.00
2022-10-13T19:07:42.309Z,100.00
2022-10-13T19:11:43.726Z,100.00
2022-10-13T19:15:45.342Z,100.00
2022-10-13T19:19:46.618Z,100.00
2022-10-13T19:23:48.546Z,100.00
2022-10-13T19:27:49.814Z,100.00
2022-10-13T19:31:51.816Z,100.00
2022-10-13T19:35:53.907Z,100.00
2022-10-13T19:39:55.544Z,100.00
2022-10-13T19:43:57.974Z,100.00
2022-10-13T19:47:59.300Z,100.00
2022-10-13T19:52:00.540Z,100.00
2022-10-13T19:56:01.824Z,100.00
2022-10-13T20:00:03.949Z,100.00
2022-10-13T20:04:05.885Z,100.00
2022-10-13T20:08:08.681Z,100.00
2022-10-13T20:12:09.990Z,100.00
2022-10-13T20:16:13.414Z,100.00
2022-10-13T20:20:17.758Z,100.00
2022-10-13T20:24:23.722Z,100.00
2022-10-13T20:28:25.176Z,100.00
2022-10-13T20:32:26.487Z,100.00
2022-10-13T20:36:28.765Z,100.00
2022-10-13T20:40:30.016Z,100.00
2022-10-13T20:44:31.356Z,100.00
2022-10-13T20:48:45.552Z,100.00
2022-10-13T20:52:54.625Z,100.00
2022-10-13T20:56:56.083Z,100.00
2022-10-13T21:00:57.667Z,100.00
2022-10-13T21:04:58.980Z,100.00
2022-10-13T21:09:00.508Z,100.00
2022-10-13T21:13:01.777Z,100.00
2022-10-13T21:17:03.094Z,100.00
2022-10-13T21:21:05.732Z,100.00
2022-10-13T21:25:07.270Z,100.00
2022-10-13T21:29:08.561Z,100.00
2022-10-13T21:33:09.979Z,100.00
2022-10-13T21:37:11.449Z,100.00
2022-10-13T21:41:13.724Z,100.00
2022-10-13T21:45:15.000Z,100.00
2022-10-13T21:49:16.436Z,100.00
2022-10-13T21:53:17.703Z,100.00
2022-10-13T21:57:20.022Z,100.00
2022-10-13T22:01:22.171Z,100.00
2022-10-13T22:05:25.180Z,100.00
2022-10-13T22:09:27.111Z,100.00
2022-10-13T22:13:28.895Z,100.00
2022-10-13T22:17:30.233Z,100.00
2022-10-13T22:21:34.137Z,100.00
2022-10-13T22:25:35.396Z,100.00
2022-10-13T22:29:36.850Z,100.00
2022-10-13T22:33:39.154Z,100.00
2022-10-13T22:37:40.811Z,100.00
2022-10-13T22:41:42.359Z,100.00
2022-10-13T22:45:52.996Z,100.00
2022-10-13T22:49:54.312Z,100.00
2022-10-13T22:53:56.632Z,100.00
2022-10-13T22:57:59.163Z,100.00
2022-10-13T23:02:00.529Z,100.00
2022-10-13T23:06:02.433Z,100.00
2022-10-13T23:10:06.393Z,100.00
2022-10-13T23:14:08.852Z,100.00
2022-10-13T23:18:10.232Z,100.00
2022-10-13T23:22:11.457Z,100.00
2022-10-13T23:26:14.729Z,100.00
2022-10-13T23:30:16.052Z,100.00
2022-10-13T23:34:17.628Z,100.00
2022-10-13T23:38:19.033Z,100.00
2022-10-13T23:42:20.328Z,100.00
2022-10-13T23:46:21.687Z,100.00
2022-10-13T23:50:23.148Z,100.00
2022-10-13T23:54:24.569Z,100.00
2022-10-13T23:58:25.836Z,100.00
